Tyler Park, New Jersey
Current Conditions -  °F | °C
As of 2:51 PM on Saturday 20 Dec 2014 (Local Time) from KNYC Reporting Station
Overcast Overcast  
Wind Chill: 28°   Ceiling: 3000
Heat Index: 33°   Visibility: 10mi
Dew Point: 19°   Wind: 6mph
Humidity: 56%   Direction: 360°N
Pressure: 30.27"   Gusts: NA
Location:  40.7933°N, 74.0263°W
Report Text: KNYC 201951Z AUTO 36005KT 10SM OVC030 01/M07 A3027 RMK AO2 SLP243 T00061072 $
Loading
Personal Weather Stations






























Interactive Weather Map New forecast layout! Learn more

10-Day Weather Forecast

Advertisements
Track Severe Weather on mobile